sensor_id;sensor_type;location;lat;lon;timestamp;pressure;altitude;pressure_sealevel;temperature
61703;BMP280;47622;47.726;3.298;2022-10-16T00:01:11;98821.88;;;15.44
61703;BMP280;47622;47.726;3.298;2022-10-16T00:03:41;98819.66;;;15.46
61703;BMP280;47622;47.726;3.298;2022-10-16T00:06:07;98825.78;;;15.50
61703;BMP280;47622;47.726;3.298;2022-10-16T00:08:34;98815.22;;;15.50
61703;BMP280;47622;47.726;3.298;2022-10-16T00:11:05;98815.13;;;15.46
61703;BMP280;47622;47.726;3.298;2022-10-16T00:13:33;98812.81;;;15.45
61703;BMP280;47622;47.726;3.298;2022-10-16T00:15:59;98813.16;;;15.43
61703;BMP280;47622;47.726;3.298;2022-10-16T00:18:26;98811.66;;;15.42
61703;BMP280;47622;47.726;3.298;2022-10-16T00:20:53;98821.00;;;15.40
61703;BMP280;47622;47.726;3.298;2022-10-16T00:23:19;98822.88;;;15.39
61703;BMP280;47622;47.726;3.298;2022-10-16T00:25:54;98831.56;;;15.40
61703;BMP280;47622;47.726;3.298;2022-10-16T00:28:20;98815.72;;;15.40
61703;BMP280;47622;47.726;3.298;2022-10-16T00:30:46;98814.31;;;15.42
61703;BMP280;47622;47.726;3.298;2022-10-16T00:33:12;98814.69;;;15.44
61703;BMP280;47622;47.726;3.298;2022-10-16T00:35:38;98812.19;;;15.48
61703;BMP280;47622;47.726;3.298;2022-10-16T00:38:03;98820.50;;;15.50
61703;BMP280;47622;47.726;3.298;2022-10-16T00:40:29;98821.28;;;15.50
61703;BMP280;47622;47.726;3.298;2022-10-16T00:42:55;98831.84;;;15.50
61703;BMP280;47622;47.726;3.298;2022-10-16T00:45:22;98824.25;;;15.49
61703;BMP280;47622;47.726;3.298;2022-10-16T00:47:49;98818.88;;;15.45
61703;BMP280;47622;47.726;3.298;2022-10-16T00:50:33;98825.38;;;15.48
61703;BMP280;47622;47.726;3.298;2022-10-16T00:53:01;98828.03;;;15.48
61703;BMP280;47622;47.726;3.298;2022-10-16T00:55:28;98819.72;;;15.49
61703;BMP280;47622;47.726;3.298;2022-10-16T00:57:57;98832.19;;;15.49
61703;BMP280;47622;47.726;3.298;2022-10-16T01:00:25;98830.22;;;15.46
61703;BMP280;47622;47.726;3.298;2022-10-16T01:03:02;98833.97;;;15.45
61703;BMP280;47622;47.726;3.298;2022-10-16T01:05:48;98839.25;;;15.45
61703;BMP280;47622;47.726;3.298;2022-10-16T01:08:22;98837.72;;;15.44
61703;BMP280;47622;47.726;3.298;2022-10-16T01:11:12;98836.53;;;15.41
61703;BMP280;47622;47.726;3.298;2022-10-16T01:13:46;98823.22;;;15.38
61703;BMP280;47622;47.726;3.298;2022-10-16T01:16:34;98821.72;;;15.37
61703;BMP280;47622;47.726;3.298;2022-10-16T01:19:44;98823.22;;;15.38
61703;BMP280;47622;47.726;3.298;2022-10-16T01:22:17;98823.66;;;15.40
61703;BMP280;47622;47.726;3.298;2022-10-16T01:24:48;98828.50;;;15.38
61703;BMP280;47622;47.726;3.298;2022-10-16T01:27:22;98829.66;;;15.37
61703;BMP280;47622;47.726;3.298;2022-10-16T01:33:05;98832.94;;;15.34
61703;BMP280;47622;47.726;3.298;2022-10-16T01:35:41;98829.91;;;15.32
61703;BMP280;47622;47.726;3.298;2022-10-16T01:38:16;98832.94;;;15.34
61703;BMP280;47622;47.726;3.298;2022-10-16T01:40:48;98834.47;;;15.35
61703;BMP280;47622;47.726;3.298;2022-10-16T01:43:18;98840.47;;;15.32
61703;BMP280;47622;47.726;3.298;2022-10-16T01:45:45;98838.22;;;15.34
61703;BMP280;47622;47.726;3.298;2022-10-16T01:48:17;98821.09;;;15.27
61703;BMP280;47622;47.726;3.298;2022-10-16T01:50:47;98821.09;;;15.27
61703;BMP280;47622;47.726;3.298;2022-10-16T01:53:15;98823.06;;;15.30
61703;BMP280;47622;47.726;3.298;2022-10-16T01:55:44;98811.97;;;15.25
61703;BMP280;47622;47.726;3.298;2022-10-16T01:58:13;98793.47;;;15.25
61703;BMP280;47622;47.726;3.298;2022-10-16T02:00:43;98802.50;;;15.24
61703;BMP280;47622;47.726;3.298;2022-10-16T02:03:11;98798.00;;;15.24
61703;BMP280;47622;47.726;3.298;2022-10-16T02:05:42;98797.75;;;15.29
61703;BMP280;47622;47.726;3.298;2022-10-16T02:08:10;98784.63;;;15.33
61703;BMP280;47622;47.726;3.298;2022-10-16T02:10:37;98809.16;;;15.34
61703;BMP280;47622;47.726;3.298;2022-10-16T02:15:34;98838.22;;;15.34
61703;BMP280;47622;47.726;3.298;2022-10-16T02:18:02;98841.53;;;15.30
61703;BMP280;47622;47.726;3.298;2022-10-16T02:20:34;98833.97;;;15.29
61703;BMP280;47622;47.726;3.298;2022-10-16T02:23:01;98824.91;;;15.30
61703;BMP280;47622;47.726;3.298;2022-10-16T02:25:35;98831.06;;;15.34
61703;BMP280;47622;47.726;3.298;2022-10-16T02:28:23;98834.56;;;15.38
61703;BMP280;47622;47.726;3.298;2022-10-16T02:31:10;98840.28;;;15.40
61703;BMP280;47622;47.726;3.298;2022-10-16T02:33:39;98831.56;;;15.40
61703;BMP280;47622;47.726;3.298;2022-10-16T02:36:06;98832.69;;;15.39
61703;BMP280;47622;47.726;3.298;2022-10-16T02:38:32;98835.34;;;15.39
61703;BMP280;47622;47.726;3.298;2022-10-16T02:40:59;98845.03;;;15.35
61703;BMP280;47622;47.726;3.298;2022-10-16T02:43:25;98846.16;;;15.34
61703;BMP280;47622;47.726;3.298;2022-10-16T02:45:51;98845.03;;;15.35
61703;BMP280;47622;47.726;3.298;2022-10-16T02:48:16;98846.84;;;15.30
61703;BMP280;47622;47.726;3.298;2022-10-16T02:50:42;98851.25;;;15.26
61703;BMP280;47622;47.726;3.298;2022-10-16T02:53:08;98851.25;;;15.26
61703;BMP280;47622;47.726;3.298;2022-10-16T02:55:33;98845.53;;;15.24
61703;BMP280;47622;47.726;3.298;2022-10-16T02:57:59;98845.63;;;15.28
61703;BMP280;47622;47.726;3.298;2022-10-16T03:00:25;98840.94;;;15.21
61703;BMP280;47622;47.726;3.298;2022-10-16T03:02:50;98840.34;;;15.28
61703;BMP280;47622;47.726;3.298;2022-10-16T03:05:17;98840.47;;;15.32
61703;BMP280;47622;47.726;3.298;2022-10-16T03:07:42;98841.28;;;15.36
61703;BMP280;47622;47.726;3.298;2022-10-16T03:10:08;98840.47;;;15.32
61703;BMP280;47622;47.726;3.298;2022-10-16T03:12:34;98837.31;;;15.26
61703;BMP280;47622;47.726;3.298;2022-10-16T03:15:00;98841.38;;;15.23
61703;BMP280;47622;47.726;3.298;2022-10-16T03:17:26;98849.19;;;15.20
61703;BMP280;47622;47.726;3.298;2022-10-16T03:19:51;98855.25;;;15.20
61703;BMP280;47622;47.726;3.298;2022-10-16T03:22:17;98853.97;;;15.14
61703;BMP280;47622;47.726;3.298;2022-10-16T03:24:43;98849.97;;;15.20
61703;BMP280;47622;47.726;3.298;2022-10-16T03:27:08;98837.88;;;15.19
61703;BMP280;47622;47.726;3.298;2022-10-16T03:29:34;98842.97;;;15.12
61703;BMP280;47622;47.726;3.298;2022-10-16T03:32:00;98826.00;;;15.13
61703;BMP280;47622;47.726;3.298;2022-10-16T03:34:26;98832.41;;;15.12
61703;BMP280;47622;47.726;3.298;2022-10-16T03:36:52;98851.22;;;15.11
61703;BMP280;47622;47.726;3.298;2022-10-16T03:39:18;98853.53;;;15.12
61703;BMP280;47622;47.726;3.298;2022-10-16T03:41:43;98847.56;;;15.15
61703;BMP280;47622;47.726;3.298;2022-10-16T03:44:09;98830.63;;;15.16
61703;BMP280;47622;47.726;3.298;2022-10-16T03:46:35;98819.81;;;15.21
61703;BMP280;47622;47.726;3.298;2022-10-16T03:49:00;98805.50;;;15.22
61703;BMP280;47622;47.726;3.298;2022-10-16T03:51:26;98810.00;;;15.22
61703;BMP280;47622;47.726;3.298;2022-10-16T03:53:52;98794.84;;;15.19
61703;BMP280;47622;47.726;3.298;2022-10-16T03:56:18;98795.03;;;15.26
61703;BMP280;47622;47.726;3.298;2022-10-16T03:58:43;98809.31;;;15.25
61703;BMP280;47622;47.726;3.298;2022-10-16T04:01:09;98813.31;;;15.19
61703;BMP280;47622;47.726;3.298;2022-10-16T04:03:35;98807.28;;;15.18
61703;BMP280;47622;47.726;3.298;2022-10-16T04:06:00;98810.34;;;15.20
61703;BMP280;47622;47.726;3.298;2022-10-16T04:08:26;98803.88;;;15.18
61703;BMP280;47622;47.726;3.298;2022-10-16T04:10:52;98811.03;;;15.17
61703;BMP280;47622;47.726;3.298;2022-10-16T04:13:17;98816.66;;;15.16
61703;BMP280;47622;47.726;3.298;2022-10-16T04:15:44;98821.16;;;15.15
61703;BMP280;47622;47.726;3.298;2022-10-16T04:18:10;98826.44;;;15.15
61703;BMP280;47622;47.726;3.298;2022-10-16T04:20:36;98821.84;;;15.12
61703;BMP280;47622;47.726;3.298;2022-10-16T04:23:01;98823.72;;;15.12
61703;BMP280;47622;47.726;3.298;2022-10-16T04:25:27;98838.19;;;15.02
61703;BMP280;47622;47.726;3.298;2022-10-16T04:27:53;98845.72;;;15.04
61703;BMP280;47622;47.726;3.298;2022-10-16T04:30:20;98838.19;;;15.02
61703;BMP280;47622;47.726;3.298;2022-10-16T04:32:52;98837.81;;;15.04
61703;BMP280;47622;47.726;3.298;2022-10-16T04:35:19;98838.19;;;15.02
61703;BMP280;47622;47.726;3.298;2022-10-16T04:37:45;98852.47;;;15.01
61703;BMP280;47622;47.726;3.298;2022-10-16T04:40:11;98846.75;;;14.99
61703;BMP280;47622;47.726;3.298;2022-10-16T04:42:40;98851.63;;;14.97
61703;BMP280;47622;47.726;3.298;2022-10-16T04:45:07;98857.75;;;15.01
61703;BMP280;47622;47.726;3.298;2022-10-16T04:47:33;98856.66;;;15.02
61703;BMP280;47622;47.726;3.298;2022-10-16T04:49:59;98854.88;;;15.06
61703;BMP280;47622;47.726;3.298;2022-10-16T04:52:28;98861.25;;;15.05
61703;BMP280;47622;47.726;3.298;2022-10-16T04:54:53;98863.03;;;15.01
61703;BMP280;47622;47.726;3.298;2022-10-16T04:57:20;98861.94;;;15.02
61703;BMP280;47622;47.726;3.298;2022-10-16T04:59:46;98866.69;;;14.96
61703;BMP280;47622;47.726;3.298;2022-10-16T05:02:11;98880.13;;;14.91
61703;BMP280;47622;47.726;3.298;2022-10-16T05:04:37;98880.47;;;14.90
61703;BMP280;47622;47.726;3.298;2022-10-16T05:07:03;98886.16;;;14.92
61703;BMP280;47622;47.726;3.298;2022-10-16T05:09:28;98883.50;;;14.92
61703;BMP280;47622;47.726;3.298;2022-10-16T05:11:54;98888.47;;;14.93
61703;BMP280;47622;47.726;3.298;2022-10-16T05:14:20;98880.88;;;14.92
61703;BMP280;47622;47.726;3.298;2022-10-16T05:16:46;98873.84;;;14.96
61703;BMP280;47622;47.726;3.298;2022-10-16T05:19:13;98868.97;;;14.98
61703;BMP280;47622;47.726;3.298;2022-10-16T05:21:39;98856.00;;;14.93
61703;BMP280;47622;47.726;3.298;2022-10-16T05:24:04;98858.00;;;14.96
61703;BMP280;47622;47.726;3.298;2022-10-16T05:26:30;98871.22;;;14.96
61703;BMP280;47622;47.726;3.298;2022-10-16T05:28:57;98875.72;;;14.95
61703;BMP280;47622;47.726;3.298;2022-10-16T05:31:22;98875.59;;;14.92
61703;BMP280;47622;47.726;3.298;2022-10-16T05:33:48;98878.94;;;14.89
61703;BMP280;47622;47.726;3.298;2022-10-16T05:36:14;98893.22;;;14.88
61703;BMP280;47622;47.726;3.298;2022-10-16T05:38:39;98890.81;;;14.83
61703;BMP280;47622;47.726;3.298;2022-10-16T05:41:05;98908.84;;;14.81
61703;BMP280;47622;47.726;3.298;2022-10-16T05:43:32;98909.53;;;14.78
61703;BMP280;47622;47.726;3.298;2022-10-16T05:46:00;98921.88;;;14.74
61703;BMP280;47622;47.726;3.298;2022-10-16T05:48:26;98926.25;;;14.70
61703;BMP280;47622;47.726;3.298;2022-10-16T05:51:04;98930.00;;;14.68
61703;BMP280;47622;47.726;3.298;2022-10-16T05:53:31;98937.25;;;14.72
61703;BMP280;47622;47.726;3.298;2022-10-16T05:55:58;98929.31;;;14.72
61703;BMP280;47622;47.726;3.298;2022-10-16T05:58:24;98941.44;;;14.73
61703;BMP280;47622;47.726;3.298;2022-10-16T06:00:58;98935.91;;;14.78
61703;BMP280;47622;47.726;3.298;2022-10-16T06:03:25;98932.59;;;14.81
61703;BMP280;47622;47.726;3.298;2022-10-16T06:05:51;98933.38;;;14.81
61703;BMP280;47622;47.726;3.298;2022-10-16T06:08:18;98936.44;;;14.83
61703;BMP280;47622;47.726;3.298;2022-10-16T06:10:44;98929.72;;;14.86
61703;BMP280;47622;47.726;3.298;2022-10-16T06:13:11;98922.19;;;14.84
61703;BMP280;47622;47.726;3.298;2022-10-16T06:15:37;98920.06;;;14.90
61703;BMP280;47622;47.726;3.298;2022-10-16T06:18:04;98921.63;;;14.91
61703;BMP280;47622;47.726;3.298;2022-10-16T06:20:30;98938.97;;;14.92
61703;BMP280;47622;47.726;3.298;2022-10-16T06:22:57;98940.44;;;14.89
61703;BMP280;47622;47.726;3.298;2022-10-16T06:25:23;98951.00;;;14.89
61703;BMP280;47622;47.726;3.298;2022-10-16T06:27:48;98947.88;;;14.87
61703;BMP280;47622;47.726;3.298;2022-10-16T06:30:14;98941.84;;;14.87
61703;BMP280;47622;47.726;3.298;2022-10-16T06:32:40;98928.22;;;14.85
61703;BMP280;47622;47.726;3.298;2022-10-16T06:35:06;98930.16;;;14.88
61703;BMP280;47622;47.726;3.298;2022-10-16T06:37:31;98940.50;;;14.93
61703;BMP280;47622;47.726;3.298;2022-10-16T06:39:57;98947.31;;;14.94
61703;BMP280;47622;47.726;3.298;2022-10-16T06:42:23;98956.72;;;14.91
61703;BMP280;47622;47.726;3.298;2022-10-16T06:44:48;98962.84;;;14.95
61703;BMP280;47622;47.726;3.298;2022-10-16T06:47:14;98957.88;;;14.94
61703;BMP280;47622;47.726;3.298;2022-10-16T06:49:40;98967.13;;;15.00
61703;BMP280;47622;47.726;3.298;2022-10-16T06:52:05;98977.00;;;15.03
61703;BMP280;47622;47.726;3.298;2022-10-16T06:54:31;98977.00;;;15.03
61703;BMP280;47622;47.726;3.298;2022-10-16T06:56:57;98985.38;;;15.05
61703;BMP280;47622;47.726;3.298;2022-10-16T06:59:22;98992.84;;;15.03
61703;BMP280;47622;47.726;3.298;2022-10-16T07:01:48;98995.97;;;15.05
61703;BMP280;47622;47.726;3.298;2022-10-16T07:04:14;98989.88;;;15.05
61703;BMP280;47622;47.726;3.298;2022-10-16T07:06:40;98997.50;;;15.06
61703;BMP280;47622;47.726;3.298;2022-10-16T07:09:08;99003.53;;;15.07
61703;BMP280;47622;47.726;3.298;2022-10-16T07:11:37;98999.22;;;15.14
61703;BMP280;47622;47.726;3.298;2022-10-16T07:14:03;99004.38;;;15.23
61703;BMP280;47622;47.726;3.298;2022-10-16T07:16:31;99013.47;;;15.38
61703;BMP280;47622;47.726;3.298;2022-10-16T07:19:00;99014.19;;;15.50
61703;BMP280;47622;47.726;3.298;2022-10-16T07:21:33;99003.75;;;15.54
61703;BMP280;47622;47.726;3.298;2022-10-16T07:24:05;99013.19;;;15.55
61703;BMP280;47622;47.726;3.298;2022-10-16T07:26:34;99017.72;;;15.54
61703;BMP280;47622;47.726;3.298;2022-10-16T07:29:01;99019.91;;;15.52
61703;BMP280;47622;47.726;3.298;2022-10-16T07:31:27;99024.03;;;15.38
61703;BMP280;47622;47.726;3.298;2022-10-16T07:33:54;99011.25;;;15.40
61703;BMP280;47622;47.726;3.298;2022-10-16T07:36:20;99010.63;;;15.43
61703;BMP280;47622;47.726;3.298;2022-10-16T07:38:47;99017.53;;;15.47
61703;BMP280;47622;47.726;3.298;2022-10-16T07:41:15;99010.38;;;15.48
61703;BMP280;47622;47.726;3.298;2022-10-16T07:43:48;99001.56;;;15.44
61703;BMP280;47622;47.726;3.298;2022-10-16T07:46:15;99022.84;;;15.47
61703;BMP280;47622;47.726;3.298;2022-10-16T07:48:42;99024.91;;;15.42
61703;BMP280;47622;47.726;3.298;2022-10-16T07:51:11;99023.72;;;15.39
61703;BMP280;47622;47.726;3.298;2022-10-16T07:53:37;99017.88;;;15.34
61703;BMP280;47622;47.726;3.298;2022-10-16T07:56:05;99023.38;;;15.41
61703;BMP280;47622;47.726;3.298;2022-10-16T07:58:32;99024.56;;;15.43
61703;BMP280;47622;47.726;3.298;2022-10-16T08:00:58;99022.69;;;15.44
61703;BMP280;47622;47.726;3.298;2022-10-16T08:03:25;99034.16;;;15.48
61703;BMP280;47622;47.726;3.298;2022-10-16T08:05:51;99035.00;;;15.52
61703;BMP280;47622;47.726;3.298;2022-10-16T08:08:18;99034.34;;;15.55
61703;BMP280;47622;47.726;3.298;2022-10-16T08:10:44;99032.66;;;15.62
61703;BMP280;47622;47.726;3.298;2022-10-16T08:13:10;99032.75;;;15.66
61703;BMP280;47622;47.726;3.298;2022-10-16T08:15:36;99031.66;;;15.67
61703;BMP280;47622;47.726;3.298;2022-10-16T08:18:04;99028.00;;;15.72
61703;BMP280;47622;47.726;3.298;2022-10-16T08:20:31;99028.13;;;15.75
61703;BMP280;47622;47.726;3.298;2022-10-16T08:23:02;99029.16;;;15.86
61703;BMP280;47622;47.726;3.298;2022-10-16T08:25:28;99036.75;;;16.04
61703;BMP280;47622;47.726;3.298;2022-10-16T08:27:54;99040.91;;;16.17
61703;BMP280;47622;47.726;3.298;2022-10-16T08:30:21;99048.00;;;16.28
61703;BMP280;47622;47.726;3.298;2022-10-16T08:32:47;99046.19;;;16.33
61703;BMP280;47622;47.726;3.298;2022-10-16T08:35:14;99047.53;;;16.42
61703;BMP280;47622;47.726;3.298;2022-10-16T08:37:40;99048.84;;;16.48
61703;BMP280;47622;47.726;3.298;2022-10-16T08:40:15;99045.13;;;16.69
61703;BMP280;47622;47.726;3.298;2022-10-16T08:48:48;99062.94;;;18.22
61703;BMP280;47622;47.726;3.298;2022-10-16T08:51:32;99058.31;;;18.69
61703;BMP280;47622;47.726;3.298;2022-10-16T08:54:01;99060.41;;;19.09
61703;BMP280;47622;47.726;3.298;2022-10-16T08:56:28;99057.06;;;19.45
61703;BMP280;47622;47.726;3.298;2022-10-16T08:58:55;99052.81;;;19.78
61703;BMP280;47622;47.726;3.298;2022-10-16T09:01:24;99056.91;;;20.12
61703;BMP280;47622;47.726;3.298;2022-10-16T09:06:53;99053.16;;;20.79
61703;BMP280;47622;47.726;3.298;2022-10-16T09:20:29;99049.09;;;21.10
61703;BMP280;47622;47.726;3.298;2022-10-16T09:23:19;99043.34;;;21.04
61703;BMP280;47622;47.726;3.298;2022-10-16T09:25:47;99050.22;;;21.12
61703;BMP280;47622;47.726;3.298;2022-10-16T09:28:14;99053.25;;;21.00
61703;BMP280;47622;47.726;3.298;2022-10-16T09:30:41;99042.97;;;20.95
61703;BMP280;47622;47.726;3.298;2022-10-16T09:33:10;99054.00;;;20.97
61703;BMP280;47622;47.726;3.298;2022-10-16T09:35:51;99045.53;;;20.81
61703;BMP280;47622;47.726;3.298;2022-10-16T09:40:52;99048.97;;;20.78
61703;BMP280;47622;47.726;3.298;2022-10-16T09:43:28;99057.44;;;20.94
61703;BMP280;47622;47.726;3.298;2022-10-16T09:46:02;99060.44;;;20.89
61703;BMP280;47622;47.726;3.298;2022-10-16T09:48:37;99061.19;;;20.93
61703;BMP280;47622;47.726;3.298;2022-10-16T09:51:06;99054.75;;;20.94
61703;BMP280;47622;47.726;3.298;2022-10-16T09:53:44;99052.84;;;20.98
61703;BMP280;47622;47.726;3.298;2022-10-16T09:56:34;99048.31;;;21.09
61703;BMP280;47622;47.726;3.298;2022-10-16T09:59:13;99043.41;;;21.18
61703;BMP280;47622;47.726;3.298;2022-10-16T10:01:41;99048.78;;;21.25
61703;BMP280;47622;47.726;3.298;2022-10-16T10:04:08;99036.22;;;21.37
61703;BMP280;47622;47.726;3.298;2022-10-16T10:06:48;99052.25;;;21.54
61703;BMP280;47622;47.726;3.298;2022-10-16T10:11:56;99049.97;;;21.67
61703;BMP280;47622;47.726;3.298;2022-10-16T10:14:35;99043.16;;;21.94
61703;BMP280;47622;47.726;3.298;2022-10-16T10:19:54;99044.13;;;22.75
61703;BMP280;47622;47.726;3.298;2022-10-16T10:22:26;99042.75;;;23.15
61703;BMP280;47622;47.726;3.298;2022-10-16T10:30:53;99045.50;;;25.80
61703;BMP280;47622;47.726;3.298;2022-10-16T10:36:22;99047.75;;;27.45
61703;BMP280;47622;47.726;3.298;2022-10-16T10:42:08;99045.31;;;28.37
61703;BMP280;47622;47.726;3.298;2022-10-16T10:52:43;99031.09;;;27.66
61703;BMP280;47622;47.726;3.298;2022-10-16T10:58:21;99035.91;;;28.54
61703;BMP280;47622;47.726;3.298;2022-10-16T11:01:14;99040.78;;;28.59
61703;BMP280;47622;47.726;3.298;2022-10-16T11:04:01;99029.97;;;28.34
61703;BMP280;47622;47.726;3.298;2022-10-16T11:06:36;99024.78;;;28.27
61703;BMP280;47622;47.726;3.298;2022-10-16T11:09:40;99022.84;;;27.86
61703;BMP280;47622;47.726;3.298;2022-10-16T11:12:26;99020.94;;;27.70
61703;BMP280;47622;47.726;3.298;2022-10-16T11:15:11;99011.34;;;27.69
61703;BMP280;47622;47.726;3.298;2022-10-16T11:18:15;99019.13;;;28.09
61703;BMP280;47622;47.726;3.298;2022-10-16T11:20:56;99020.78;;;27.61
61703;BMP280;47622;47.726;3.298;2022-10-16T11:23:37;99011.75;;;27.23
61703;BMP280;47622;47.726;3.298;2022-10-16T11:26:13;99013.00;;;27.50
61703;BMP280;47622;47.726;3.298;2022-10-16T11:28:47;99002.16;;;27.21
61703;BMP280;47622;47.726;3.298;2022-10-16T11:31:36;99004.28;;;26.98
61703;BMP280;47622;47.726;3.298;2022-10-16T11:34:13;98993.59;;;26.94
61703;BMP280;47622;47.726;3.298;2022-10-16T11:37:02;99004.38;;;27.10
61703;BMP280;47622;47.726;3.298;2022-10-16T11:39:30;98994.00;;;27.25
61703;BMP280;47622;47.726;3.298;2022-10-16T11:42:21;98999.38;;;26.93
61703;BMP280;47622;47.726;3.298;2022-10-16T11:45:46;98990.97;;;27.07
61703;BMP280;47622;47.726;3.298;2022-10-16T11:47:53;98990.69;;;26.85
61703;BMP280;47622;47.726;3.298;2022-10-16T11:50:25;98988.50;;;26.64
61703;BMP280;47622;47.726;3.298;2022-10-16T11:52:55;98985.19;;;26.20
61703;BMP280;47622;47.726;3.298;2022-10-16T11:55:35;98994.78;;;26.01
61703;BMP280;47622;47.726;3.298;2022-10-16T11:58:24;98987.13;;;26.39
61703;BMP280;47622;47.726;3.298;2022-10-16T12:06:50;98978.16;;;25.87
61703;BMP280;47622;47.726;3.298;2022-10-16T12:09:22;98973.88;;;25.69
61703;BMP280;47622;47.726;3.298;2022-10-16T12:11:50;98976.34;;;25.60
61703;BMP280;47622;47.726;3.298;2022-10-16T12:14:18;98974.72;;;25.20
61703;BMP280;47622;47.726;3.298;2022-10-16T12:16:58;98975.81;;;24.72
61703;BMP280;47622;47.726;3.298;2022-10-16T12:19:29;98974.66;;;24.73
61703;BMP280;47622;47.726;3.298;2022-10-16T12:22:02;98966.41;;;24.57
61703;BMP280;47622;47.726;3.298;2022-10-16T12:24:41;98964.31;;;24.45
61703;BMP280;47622;47.726;3.298;2022-10-16T12:27:32;98956.41;;;24.61
61703;BMP280;47622;47.726;3.298;2022-10-16T12:30:04;98951.03;;;24.61
61703;BMP280;47622;47.726;3.298;2022-10-16T12:32:36;98962.81;;;24.98
61703;BMP280;47622;47.726;3.298;2022-10-16T12:35:03;98957.44;;;25.44
61703;BMP280;47622;47.726;3.298;2022-10-16T12:37:34;98961.28;;;25.20
61703;BMP280;47622;47.726;3.298;2022-10-16T12:42:52;98947.56;;;24.91
61703;BMP280;47622;47.726;3.298;2022-10-16T12:45:30;98951.22;;;25.01
61703;BMP280;47622;47.726;3.298;2022-10-16T12:47:57;98942.63;;;25.13
61703;BMP280;47622;47.726;3.298;2022-10-16T12:50:34;98945.28;;;25.36
61703;BMP280;47622;47.726;3.298;2022-10-16T12:53:01;98937.00;;;25.27
61703;BMP280;47622;47.726;3.298;2022-10-16T12:55:34;98930.25;;;25.19
61703;BMP280;47622;47.726;3.298;2022-10-16T13:00:56;98936.78;;;25.18
61703;BMP280;47622;47.726;3.298;2022-10-16T13:06:01;98925.22;;;24.98
61703;BMP280;47622;47.726;3.298;2022-10-16T13:08:42;98923.78;;;24.89
61703;BMP280;47622;47.726;3.298;2022-10-16T13:21:59;98931.13;;;25.12
61703;BMP280;47622;47.726;3.298;2022-10-16T13:27:34;98921.34;;;24.99
61703;BMP280;47622;47.726;3.298;2022-10-16T13:33:33;98920.50;;;24.78
61703;BMP280;47622;47.726;3.298;2022-10-16T13:36:00;98918.53;;;24.82
61703;BMP280;47622;47.726;3.298;2022-10-16T13:38:28;98925.69;;;24.92
61703;BMP280;47622;47.726;3.298;2022-10-16T13:41:15;98916.44;;;24.70
61703;BMP280;47622;47.726;3.298;2022-10-16T13:43:49;98920.72;;;24.64
61703;BMP280;47622;47.726;3.298;2022-10-16T13:46:20;98916.81;;;24.42
61703;BMP280;47622;47.726;3.298;2022-10-16T13:49:03;98914.72;;;24.53
61703;BMP280;47622;47.726;3.298;2022-10-16T13:51:31;98919.44;;;24.49
61703;BMP280;47622;47.726;3.298;2022-10-16T13:53:57;98919.03;;;24.47
61703;BMP280;47622;47.726;3.298;2022-10-16T13:56:28;98912.47;;;24.21
61703;BMP280;47622;47.726;3.298;2022-10-16T13:59:02;98921.19;;;23.98
61703;BMP280;47622;47.726;3.298;2022-10-16T14:01:31;98910.81;;;24.00
61703;BMP280;47622;47.726;3.298;2022-10-16T14:04:04;98913.38;;;24.11
61703;BMP280;47622;47.726;3.298;2022-10-16T14:06:31;98912.81;;;23.93
61703;BMP280;47622;47.726;3.298;2022-10-16T14:09:05;98910.47;;;23.98
61703;BMP280;47622;47.726;3.298;2022-10-16T14:11:33;98905.91;;;23.95
61703;BMP280;47622;47.726;3.298;2022-10-16T14:14:00;98901.28;;;23.99
61703;BMP280;47622;47.726;3.298;2022-10-16T14:16:29;98903.66;;;23.90
61703;BMP280;47622;47.726;3.298;2022-10-16T14:18:58;98904.69;;;23.69
61703;BMP280;47622;47.726;3.298;2022-10-16T14:21:26;98904.84;;;23.52
61703;BMP280;47622;47.726;3.298;2022-10-16T14:23:52;98909.81;;;23.50
61703;BMP280;47622;47.726;3.298;2022-10-16T14:26:20;98907.91;;;23.50
61703;BMP280;47622;47.726;3.298;2022-10-16T14:28:48;98911.44;;;23.43
61703;BMP280;47622;47.726;3.298;2022-10-16T14:31:27;98922.59;;;23.31
61703;BMP280;47622;47.726;3.298;2022-10-16T14:33:53;98923.28;;;23.42
61703;BMP280;47622;47.726;3.298;2022-10-16T14:36:19;98923.22;;;23.50
61703;BMP280;47622;47.726;3.298;2022-10-16T14:38:54;98927.72;;;23.56
61703;BMP280;47622;47.726;3.298;2022-10-16T14:41:22;98923.94;;;23.54
61703;BMP280;47622;47.726;3.298;2022-10-16T14:44:02;98929.25;;;23.57
61703;BMP280;47622;47.726;3.298;2022-10-16T14:46:40;98928.06;;;23.65
61703;BMP280;47622;47.726;3.298;2022-10-16T14:51:36;98923.44;;;23.69
61703;BMP280;47622;47.726;3.298;2022-10-16T14:54:02;98920.47;;;23.57
61703;BMP280;47622;47.726;3.298;2022-10-16T14:56:57;98929.72;;;23.48
61703;BMP280;47622;47.726;3.298;2022-10-16T14:59:29;98933.69;;;23.33
61703;BMP280;47622;47.726;3.298;2022-10-16T15:01:55;98929.53;;;23.25
61703;BMP280;47622;47.726;3.298;2022-10-16T15:04:21;98924.03;;;22.95
61703;BMP280;47622;47.726;3.298;2022-10-16T15:06:47;98914.88;;;22.89
61703;BMP280;47622;47.726;3.298;2022-10-16T15:09:13;98930.56;;;22.87
61703;BMP280;47622;47.726;3.298;2022-10-16T15:11:39;98922.63;;;22.72
61703;BMP280;47622;47.726;3.298;2022-10-16T15:14:05;98924.16;;;22.73
61703;BMP280;47622;47.726;3.298;2022-10-16T15:16:31;98924.63;;;22.61
61703;BMP280;47622;47.726;3.298;2022-10-16T15:18:57;98923.91;;;22.54
61703;BMP280;47622;47.726;3.298;2022-10-16T15:21:26;98929.28;;;22.43
61703;BMP280;47622;47.726;3.298;2022-10-16T15:23:52;98925.50;;;22.33
61703;BMP280;47622;47.726;3.298;2022-10-16T15:26:18;98924.41;;;22.27
61703;BMP280;47622;47.726;3.298;2022-10-16T15:28:44;98920.22;;;22.23
61703;BMP280;47622;47.726;3.298;2022-10-16T15:31:10;98920.59;;;22.14
61703;BMP280;47622;47.726;3.298;2022-10-16T15:33:35;98924.06;;;22.08
61703;BMP280;47622;47.726;3.298;2022-10-16T15:36:02;98923.31;;;22.03
61703;BMP280;47622;47.726;3.298;2022-10-16T15:38:28;98927.47;;;22.04
61703;BMP280;47622;47.726;3.298;2022-10-16T15:40:55;98920.25;;;22.01
61703;BMP280;47622;47.726;3.298;2022-10-16T15:43:21;98916.44;;;22.02
61703;BMP280;47622;47.726;3.298;2022-10-16T15:46:01;98913.78;;;22.02
61703;BMP280;47622;47.726;3.298;2022-10-16T15:48:28;98917.22;;;21.99
61703;BMP280;47622;47.726;3.298;2022-10-16T15:50:54;98914.16;;;21.94
61703;BMP280;47622;47.726;3.298;2022-10-16T15:53:20;98914.19;;;21.90
61703;BMP280;47622;47.726;3.298;2022-10-16T15:55:45;98915.75;;;21.84